sensor_id;sensor_type;location;lat;lon;timestamp;P1;durP1;ratioP1;P2;durP2;ratioP2
59998;SDS011;45859;51.378;6.736;2023-07-13T00:00:34;9.40;;;3.28;;
59998;SDS011;45859;51.378;6.736;2023-07-13T00:03:01;8.98;;;3.05;;
59998;SDS011;45859;51.378;6.736;2023-07-13T00:05:27;11.57;;;2.50;;
59998;SDS011;45859;51.378;6.736;2023-07-13T00:07:52;10.55;;;3.03;;
59998;SDS011;45859;51.378;6.736;2023-07-13T00:10:19;11.82;;;4.95;;
59998;SDS011;45859;51.378;6.736;2023-07-13T00:12:45;13.52;;;3.78;;
59998;SDS011;45859;51.378;6.736;2023-07-13T00:15:22;4.97;;;2.45;;
59998;SDS011;45859;51.378;6.736;2023-07-13T00:17:50;8.20;;;2.35;;
59998;SDS011;45859;51.378;6.736;2023-07-13T00:20:17;5.40;;;1.88;;
59998;SDS011;45859;51.378;6.736;2023-07-13T00:22:46;7.82;;;2.55;;
59998;SDS011;45859;51.378;6.736;2023-07-13T00:25:12;10.43;;;2.63;;
59998;SDS011;45859;51.378;6.736;2023-07-13T00:27:38;12.60;;;4.03;;
59998;SDS011;45859;51.378;6.736;2023-07-13T00:30:04;9.63;;;3.30;;
59998;SDS011;45859;51.378;6.736;2023-07-13T00:32:30;11.07;;;2.97;;
59998;SDS011;45859;51.378;6.736;2023-07-13T00:34:56;6.30;;;1.80;;
59998;SDS011;45859;51.378;6.736;2023-07-13T00:37:23;5.80;;;1.80;;
59998;SDS011;45859;51.378;6.736;2023-07-13T00:39:49;4.32;;;1.33;;
59998;SDS011;45859;51.378;6.736;2023-07-13T00:42:14;4.15;;;1.55;;
59998;SDS011;45859;51.378;6.736;2023-07-13T00:44:40;7.10;;;1.88;;
59998;SDS011;45859;51.378;6.736;2023-07-13T00:47:06;3.40;;;1.38;;
59998;SDS011;45859;51.378;6.736;2023-07-13T00:49:32;3.83;;;1.43;;
59998;SDS011;45859;51.378;6.736;2023-07-13T00:52:02;4.17;;;1.60;;
59998;SDS011;45859;51.378;6.736;2023-07-13T00:54:32;6.28;;;1.73;;
59998;SDS011;45859;51.378;6.736;2023-07-13T00:57:04;4.60;;;1.50;;
59998;SDS011;45859;51.378;6.736;2023-07-13T00:59:33;3.57;;;1.30;;
59998;SDS011;45859;51.378;6.736;2023-07-13T01:02:01;5.90;;;1.80;;
59998;SDS011;45859;51.378;6.736;2023-07-13T01:04:28;5.40;;;1.50;;
59998;SDS011;45859;51.378;6.736;2023-07-13T01:06:54;5.60;;;1.50;;
59998;SDS011;45859;51.378;6.736;2023-07-13T01:09:22;6.07;;;2.17;;
59998;SDS011;45859;51.378;6.736;2023-07-13T01:11:48;6.33;;;2.17;;
59998;SDS011;45859;51.378;6.736;2023-07-13T01:14:14;7.40;;;1.90;;
59998;SDS011;45859;51.378;6.736;2023-07-13T01:16:42;4.70;;;2.10;;
59998;SDS011;45859;51.378;6.736;2023-07-13T01:19:12;5.40;;;1.90;;
59998;SDS011;45859;51.378;6.736;2023-07-13T01:21:51;4.63;;;1.70;;
59998;SDS011;45859;51.378;6.736;2023-07-13T01:24:17;7.03;;;1.73;;
59998;SDS011;45859;51.378;6.736;2023-07-13T01:26:43;5.33;;;1.60;;
59998;SDS011;45859;51.378;6.736;2023-07-13T01:29:08;7.00;;;1.83;;
59998;SDS011;45859;51.378;6.736;2023-07-13T01:31:34;4.30;;;1.83;;
59998;SDS011;45859;51.378;6.736;2023-07-13T01:34:00;8.43;;;2.37;;
59998;SDS011;45859;51.378;6.736;2023-07-13T01:36:25;7.23;;;2.50;;
59998;SDS011;45859;51.378;6.736;2023-07-13T01:38:51;5.43;;;2.40;;
59998;SDS011;45859;51.378;6.736;2023-07-13T01:41:17;9.20;;;3.57;;
59998;SDS011;45859;51.378;6.736;2023-07-13T01:43:43;12.50;;;6.30;;
59998;SDS011;45859;51.378;6.736;2023-07-13T01:46:09;15.70;;;6.27;;
59998;SDS011;45859;51.378;6.736;2023-07-13T01:48:34;12.70;;;5.53;;
59998;SDS011;45859;51.378;6.736;2023-07-13T01:51:00;7.63;;;2.93;;
59998;SDS011;45859;51.378;6.736;2023-07-13T01:53:26;8.10;;;2.40;;
59998;SDS011;45859;51.378;6.736;2023-07-13T01:55:51;6.37;;;2.13;;
59998;SDS011;45859;51.378;6.736;2023-07-13T01:58:17;5.33;;;2.13;;
59998;SDS011;45859;51.378;6.736;2023-07-13T02:00:43;4.87;;;2.40;;
59998;SDS011;45859;51.378;6.736;2023-07-13T02:03:08;6.73;;;2.27;;
59998;SDS011;45859;51.378;6.736;2023-07-13T02:05:34;6.93;;;2.20;;
59998;SDS011;45859;51.378;6.736;2023-07-13T02:08:01;4.97;;;1.87;;
59998;SDS011;45859;51.378;6.736;2023-07-13T02:10:27;4.90;;;1.80;;
59998;SDS011;45859;51.378;6.736;2023-07-13T02:12:53;4.17;;;1.63;;
59998;SDS011;45859;51.378;6.736;2023-07-13T02:15:19;7.50;;;1.67;;
59998;SDS011;45859;51.378;6.736;2023-07-13T02:17:44;7.43;;;2.07;;
59998;SDS011;45859;51.378;6.736;2023-07-13T02:20:11;6.33;;;2.03;;
59998;SDS011;45859;51.378;6.736;2023-07-13T02:22:37;3.87;;;1.80;;
59998;SDS011;45859;51.378;6.736;2023-07-13T02:25:02;5.87;;;2.00;;
59998;SDS011;45859;51.378;6.736;2023-07-13T02:27:28;5.97;;;2.17;;
59998;SDS011;45859;51.378;6.736;2023-07-13T02:29:54;7.47;;;2.83;;
59998;SDS011;45859;51.378;6.736;2023-07-13T02:32:20;9.40;;;2.37;;
59998;SDS011;45859;51.378;6.736;2023-07-13T02:34:45;5.10;;;1.90;;
59998;SDS011;45859;51.378;6.736;2023-07-13T02:37:11;3.83;;;2.10;;
59998;SDS011;45859;51.378;6.736;2023-07-13T02:39:37;4.73;;;2.13;;
59998;SDS011;45859;51.378;6.736;2023-07-13T02:42:02;5.40;;;2.40;;
59998;SDS011;45859;51.378;6.736;2023-07-13T02:44:28;6.63;;;2.50;;
59998;SDS011;45859;51.378;6.736;2023-07-13T02:46:54;5.23;;;2.77;;
59998;SDS011;45859;51.378;6.736;2023-07-13T02:49:20;8.63;;;2.30;;
59998;SDS011;45859;51.378;6.736;2023-07-13T02:51:45;7.13;;;2.40;;
59998;SDS011;45859;51.378;6.736;2023-07-13T02:54:11;4.97;;;1.83;;
59998;SDS011;45859;51.378;6.736;2023-07-13T02:56:38;7.73;;;2.60;;
59998;SDS011;45859;51.378;6.736;2023-07-13T02:59:05;6.40;;;2.27;;
59998;SDS011;45859;51.378;6.736;2023-07-13T03:01:30;4.63;;;2.10;;
59998;SDS011;45859;51.378;6.736;2023-07-13T03:03:59;6.90;;;1.77;;
59998;SDS011;45859;51.378;6.736;2023-07-13T03:06:25;4.90;;;1.97;;
59998;SDS011;45859;51.378;6.736;2023-07-13T03:08:54;4.63;;;1.93;;
59998;SDS011;45859;51.378;6.736;2023-07-13T03:11:20;7.80;;;2.03;;
59998;SDS011;45859;51.378;6.736;2023-07-13T03:13:46;3.50;;;1.63;;
59998;SDS011;45859;51.378;6.736;2023-07-13T03:16:13;6.53;;;1.93;;
59998;SDS011;45859;51.378;6.736;2023-07-13T03:18:41;4.67;;;1.80;;
59998;SDS011;45859;51.378;6.736;2023-07-13T03:21:06;3.77;;;1.87;;
59998;SDS011;45859;51.378;6.736;2023-07-13T03:23:32;5.50;;;1.93;;
59998;SDS011;45859;51.378;6.736;2023-07-13T03:26:02;9.00;;;1.90;;
59998;SDS011;45859;51.378;6.736;2023-07-13T03:28:33;6.40;;;2.10;;
59998;SDS011;45859;51.378;6.736;2023-07-13T03:31:03;5.97;;;2.40;;
59998;SDS011;45859;51.378;6.736;2023-07-13T03:33:31;7.07;;;3.03;;
59998;SDS011;45859;51.378;6.736;2023-07-13T03:35:57;5.27;;;2.63;;
59998;SDS011;45859;51.378;6.736;2023-07-13T03:38:23;7.40;;;2.80;;
59998;SDS011;45859;51.378;6.736;2023-07-13T03:40:49;6.63;;;3.13;;
59998;SDS011;45859;51.378;6.736;2023-07-13T03:43:14;6.43;;;3.17;;
59998;SDS011;45859;51.378;6.736;2023-07-13T03:45:40;8.27;;;3.17;;
59998;SDS011;45859;51.378;6.736;2023-07-13T03:48:06;6.83;;;2.63;;
59998;SDS011;45859;51.378;6.736;2023-07-13T03:50:32;7.43;;;2.60;;
59998;SDS011;45859;51.378;6.736;2023-07-13T03:52:58;5.60;;;2.57;;
59998;SDS011;45859;51.378;6.736;2023-07-13T03:55:24;8.57;;;3.23;;
59998;SDS011;45859;51.378;6.736;2023-07-13T03:57:54;7.63;;;2.97;;
59998;SDS011;45859;51.378;6.736;2023-07-13T04:00:24;6.37;;;2.60;;
59998;SDS011;45859;51.378;6.736;2023-07-13T04:02:49;6.43;;;2.80;;
59998;SDS011;45859;51.378;6.736;2023-07-13T04:05:15;9.23;;;3.27;;
59998;SDS011;45859;51.378;6.736;2023-07-13T04:07:41;11.17;;;2.93;;
59998;SDS011;45859;51.378;6.736;2023-07-13T04:10:07;8.00;;;3.37;;
59998;SDS011;45859;51.378;6.736;2023-07-13T04:12:33;7.60;;;3.47;;
59998;SDS011;45859;51.378;6.736;2023-07-13T04:14:58;9.23;;;3.37;;
59998;SDS011;45859;51.378;6.736;2023-07-13T04:17:24;8.00;;;3.00;;
59998;SDS011;45859;51.378;6.736;2023-07-13T04:19:49;5.40;;;2.57;;
59998;SDS011;45859;51.378;6.736;2023-07-13T04:22:15;8.97;;;2.50;;
59998;SDS011;45859;51.378;6.736;2023-07-13T04:24:41;7.00;;;2.30;;
59998;SDS011;45859;51.378;6.736;2023-07-13T04:27:06;4.43;;;2.83;;
59998;SDS011;45859;51.378;6.736;2023-07-13T04:29:32;7.07;;;2.30;;
59998;SDS011;45859;51.378;6.736;2023-07-13T04:31:58;6.07;;;2.43;;
59998;SDS011;45859;51.378;6.736;2023-07-13T04:34:23;6.83;;;2.63;;
59998;SDS011;45859;51.378;6.736;2023-07-13T04:36:49;6.07;;;2.43;;
59998;SDS011;45859;51.378;6.736;2023-07-13T04:39:15;5.93;;;2.60;;
59998;SDS011;45859;51.378;6.736;2023-07-13T04:41:41;8.40;;;2.63;;
59998;SDS011;45859;51.378;6.736;2023-07-13T04:44:07;5.90;;;2.40;;
59998;SDS011;45859;51.378;6.736;2023-07-13T04:46:32;6.30;;;2.20;;
59998;SDS011;45859;51.378;6.736;2023-07-13T04:48:58;10.43;;;2.70;;
59998;SDS011;45859;51.378;6.736;2023-07-13T04:51:24;8.43;;;3.03;;
59998;SDS011;45859;51.378;6.736;2023-07-13T04:53:51;7.00;;;3.03;;
59998;SDS011;45859;51.378;6.736;2023-07-13T04:56:17;5.03;;;2.80;;
59998;SDS011;45859;51.378;6.736;2023-07-13T04:58:42;6.63;;;2.70;;
59998;SDS011;45859;51.378;6.736;2023-07-13T05:01:09;5.73;;;2.50;;
59998;SDS011;45859;51.378;6.736;2023-07-13T05:03:35;10.23;;;2.90;;
59998;SDS011;45859;51.378;6.736;2023-07-13T05:06:02;11.37;;;3.30;;
59998;SDS011;45859;51.378;6.736;2023-07-13T05:08:29;8.80;;;3.10;;
59998;SDS011;45859;51.378;6.736;2023-07-13T05:10:55;8.23;;;3.50;;
59998;SDS011;45859;51.378;6.736;2023-07-13T05:13:21;7.80;;;3.07;;
59998;SDS011;45859;51.378;6.736;2023-07-13T05:15:55;8.53;;;3.33;;
59998;SDS011;45859;51.378;6.736;2023-07-13T05:18:25;9.47;;;3.37;;
59998;SDS011;45859;51.378;6.736;2023-07-13T05:20:57;9.53;;;3.57;;
59998;SDS011;45859;51.378;6.736;2023-07-13T05:25:57;11.27;;;3.60;;
59998;SDS011;45859;51.378;6.736;2023-07-13T05:28:24;7.37;;;2.93;;
59998;SDS011;45859;51.378;6.736;2023-07-13T05:30:50;6.93;;;3.20;;
59998;SDS011;45859;51.378;6.736;2023-07-13T05:33:17;9.10;;;3.20;;
59998;SDS011;45859;51.378;6.736;2023-07-13T05:35:43;6.95;;;2.75;;
59998;SDS011;45859;51.378;6.736;2023-07-13T05:38:08;10.27;;;3.10;;
59998;SDS011;45859;51.378;6.736;2023-07-13T05:40:34;11.57;;;3.83;;
59998;SDS011;45859;51.378;6.736;2023-07-13T05:43:00;9.77;;;3.78;;
59998;SDS011;45859;51.378;6.736;2023-07-13T05:45:25;11.25;;;3.42;;
59998;SDS011;45859;51.378;6.736;2023-07-13T05:47:51;10.30;;;3.50;;
59998;SDS011;45859;51.378;6.736;2023-07-13T05:50:17;10.48;;;3.40;;
59998;SDS011;45859;51.378;6.736;2023-07-13T05:52:43;11.10;;;4.28;;
59998;SDS011;45859;51.378;6.736;2023-07-13T05:55:08;8.15;;;3.30;;
59998;SDS011;45859;51.378;6.736;2023-07-13T05:57:34;8.40;;;3.30;;
59998;SDS011;45859;51.378;6.736;2023-07-13T06:00:00;13.82;;;4.30;;
59998;SDS011;45859;51.378;6.736;2023-07-13T06:02:25;14.00;;;4.05;;
59998;SDS011;45859;51.378;6.736;2023-07-13T06:04:52;8.27;;;3.05;;
59998;SDS011;45859;51.378;6.736;2023-07-13T06:07:18;10.77;;;3.40;;
59998;SDS011;45859;51.378;6.736;2023-07-13T06:09:43;10.82;;;3.13;;
59998;SDS011;45859;51.378;6.736;2023-07-13T06:12:09;8.95;;;3.28;;
59998;SDS011;45859;51.378;6.736;2023-07-13T06:14:34;9.18;;;3.17;;
59998;SDS011;45859;51.378;6.736;2023-07-13T06:17:00;10.57;;;3.55;;
59998;SDS011;45859;51.378;6.736;2023-07-13T06:19:26;11.02;;;3.95;;
59998;SDS011;45859;51.378;6.736;2023-07-13T06:21:51;8.05;;;3.47;;
59998;SDS011;45859;51.378;6.736;2023-07-13T06:24:17;7.40;;;3.03;;
59998;SDS011;45859;51.378;6.736;2023-07-13T06:26:42;9.88;;;3.38;;
59998;SDS011;45859;51.378;6.736;2023-07-13T06:29:08;6.47;;;2.60;;
59998;SDS011;45859;51.378;6.736;2023-07-13T06:31:34;8.95;;;3.38;;
59998;SDS011;45859;51.378;6.736;2023-07-13T06:33:59;7.43;;;2.95;;
59998;SDS011;45859;51.378;6.736;2023-07-13T06:36:25;9.48;;;3.17;;
59998;SDS011;45859;51.378;6.736;2023-07-13T06:38:51;7.25;;;2.90;;
59998;SDS011;45859;51.378;6.736;2023-07-13T06:41:16;9.40;;;3.17;;
59998;SDS011;45859;51.378;6.736;2023-07-13T06:43:42;7.32;;;3.05;;
59998;SDS011;45859;51.378;6.736;2023-07-13T06:46:07;8.20;;;3.38;;
59998;SDS011;45859;51.378;6.736;2023-07-13T06:48:33;11.43;;;4.38;;
59998;SDS011;45859;51.378;6.736;2023-07-13T06:50:59;10.27;;;3.60;;
59998;SDS011;45859;51.378;6.736;2023-07-13T06:53:24;12.02;;;4.45;;
59998;SDS011;45859;51.378;6.736;2023-07-13T06:55:50;12.05;;;4.70;;
59998;SDS011;45859;51.378;6.736;2023-07-13T06:58:16;11.25;;;4.93;;
59998;SDS011;45859;51.378;6.736;2023-07-13T07:00:43;13.05;;;4.53;;
59998;SDS011;45859;51.378;6.736;2023-07-13T07:03:09;10.10;;;4.13;;
59998;SDS011;45859;51.378;6.736;2023-07-13T07:05:34;8.15;;;3.65;;
59998;SDS011;45859;51.378;6.736;2023-07-13T07:08:00;9.35;;;4.32;;
59998;SDS011;45859;51.378;6.736;2023-07-13T07:10:26;6.88;;;3.53;;
59998;SDS011;45859;51.378;6.736;2023-07-13T07:12:54;8.88;;;3.92;;
59998;SDS011;45859;51.378;6.736;2023-07-13T07:15:19;14.57;;;4.88;;
59998;SDS011;45859;51.378;6.736;2023-07-13T07:17:45;10.90;;;4.43;;
59998;SDS011;45859;51.378;6.736;2023-07-13T07:20:11;10.07;;;3.45;;
59998;SDS011;45859;51.378;6.736;2023-07-13T07:22:37;12.40;;;4.10;;
59998;SDS011;45859;51.378;6.736;2023-07-13T07:25:03;8.55;;;3.97;;
59998;SDS011;45859;51.378;6.736;2023-07-13T07:27:29;10.52;;;4.15;;
59998;SDS011;45859;51.378;6.736;2023-07-13T07:29:55;9.60;;;3.78;;
59998;SDS011;45859;51.378;6.736;2023-07-13T07:32:22;9.88;;;4.75;;
59998;SDS011;45859;51.378;6.736;2023-07-13T07:34:48;8.50;;;4.70;;
59998;SDS011;45859;51.378;6.736;2023-07-13T07:37:14;11.63;;;4.20;;
59998;SDS011;45859;51.378;6.736;2023-07-13T07:39:40;11.80;;;4.80;;
59998;SDS011;45859;51.378;6.736;2023-07-13T07:42:06;15.38;;;8.88;;
59998;SDS011;45859;51.378;6.736;2023-07-13T07:44:32;15.40;;;6.18;;
59998;SDS011;45859;51.378;6.736;2023-07-13T07:46:59;17.60;;;8.55;;
59998;SDS011;45859;51.378;6.736;2023-07-13T07:49:24;10.27;;;5.43;;
59998;SDS011;45859;51.378;6.736;2023-07-13T07:51:50;10.45;;;5.13;;
59998;SDS011;45859;51.378;6.736;2023-07-13T07:54:16;7.82;;;3.70;;
59998;SDS011;45859;51.378;6.736;2023-07-13T07:56:42;10.13;;;4.45;;
59998;SDS011;45859;51.378;6.736;2023-07-13T07:59:07;9.25;;;4.32;;
59998;SDS011;45859;51.378;6.736;2023-07-13T08:01:33;12.25;;;4.50;;
59998;SDS011;45859;51.378;6.736;2023-07-13T08:03:59;11.10;;;4.15;;
59998;SDS011;45859;51.378;6.736;2023-07-13T08:06:25;12.57;;;5.63;;
59998;SDS011;45859;51.378;6.736;2023-07-13T08:08:50;12.68;;;4.63;;
59998;SDS011;45859;51.378;6.736;2023-07-13T08:11:16;8.52;;;3.80;;
59998;SDS011;45859;51.378;6.736;2023-07-13T08:13:42;8.68;;;3.53;;
59998;SDS011;45859;51.378;6.736;2023-07-13T08:16:08;14.13;;;4.20;;
59998;SDS011;45859;51.378;6.736;2023-07-13T08:18:34;9.25;;;3.85;;
59998;SDS011;45859;51.378;6.736;2023-07-13T08:21:03;8.38;;;3.47;;
59998;SDS011;45859;51.378;6.736;2023-07-13T08:23:33;6.82;;;3.33;;
59998;SDS011;45859;51.378;6.736;2023-07-13T08:25:59;9.30;;;3.67;;
59998;SDS011;45859;51.378;6.736;2023-07-13T08:28:26;7.45;;;3.15;;
59998;SDS011;45859;51.378;6.736;2023-07-13T08:30:52;8.32;;;3.33;;
59998;SDS011;45859;51.378;6.736;2023-07-13T08:33:19;9.00;;;3.65;;
59998;SDS011;45859;51.378;6.736;2023-07-13T08:35:46;7.82;;;3.75;;
59998;SDS011;45859;51.378;6.736;2023-07-13T08:38:13;9.32;;;3.90;;
59998;SDS011;45859;51.378;6.736;2023-07-13T08:40:39;5.93;;;2.53;;
59998;SDS011;45859;51.378;6.736;2023-07-13T08:43:06;5.97;;;3.13;;
59998;SDS011;45859;51.378;6.736;2023-07-13T08:48:19;15.98;;;5.03;;
59998;SDS011;45859;51.378;6.736;2023-07-13T08:53:36;10.35;;;3.85;;
59998;SDS011;45859;51.378;6.736;2023-07-13T08:56:08;10.65;;;3.42;;
59998;SDS011;45859;51.378;6.736;2023-07-13T08:58:39;7.07;;;3.70;;
59998;SDS011;45859;51.378;6.736;2023-07-13T09:01:17;11.88;;;5.00;;
59998;SDS011;45859;51.378;6.736;2023-07-13T09:18:23;11.60;;;4.30;;
59998;SDS011;45859;51.378;6.736;2023-07-13T09:20:57;9.15;;;3.58;;
59998;SDS011;45859;51.378;6.736;2023-07-13T09:23:28;9.98;;;3.88;;
59998;SDS011;45859;51.378;6.736;2023-07-13T09:26:03;12.85;;;5.00;;
59998;SDS011;45859;51.378;6.736;2023-07-13T09:28:37;6.28;;;3.83;;
59998;SDS011;45859;51.378;6.736;2023-07-13T09:31:17;10.13;;;3.42;;
59998;SDS011;45859;51.378;6.736;2023-07-13T09:33:48;12.15;;;4.85;;
59998;SDS011;45859;51.378;6.736;2023-07-13T09:36:19;13.00;;;4.28;;
59998;SDS011;45859;51.378;6.736;2023-07-13T09:42:06;11.23;;;4.35;;
59998;SDS011;45859;51.378;6.736;2023-07-13T09:44:14;15.60;;;5.57;;
59998;SDS011;45859;51.378;6.736;2023-07-13T09:46:46;9.60;;;4.03;;
59998;SDS011;45859;51.378;6.736;2023-07-13T09:49:17;9.73;;;4.50;;
59998;SDS011;45859;51.378;6.736;2023-07-13T09:51:44;9.52;;;3.60;;
59998;SDS011;45859;51.378;6.736;2023-07-13T09:54:17;13.02;;;3.70;;
59998;SDS011;45859;51.378;6.736;2023-07-13T09:56:53;11.85;;;3.58;;
59998;SDS011;45859;51.378;6.736;2023-07-13T09:59:24;7.18;;;2.83;;
59998;SDS011;45859;51.378;6.736;2023-07-13T10:01:53;8.80;;;3.30;;
59998;SDS011;45859;51.378;6.736;2023-07-13T10:04:19;12.88;;;3.85;;
59998;SDS011;45859;51.378;6.736;2023-07-13T10:07:04;8.75;;;3.20;;
59998;SDS011;45859;51.378;6.736;2023-07-13T10:09:36;9.95;;;3.17;;
59998;SDS011;45859;51.378;6.736;2023-07-13T10:12:03;8.52;;;3.45;;
59998;SDS011;45859;51.378;6.736;2023-07-13T10:14:38;6.93;;;2.72;;
59998;SDS011;45859;51.378;6.736;2023-07-13T10:17:04;6.93;;;3.17;;
59998;SDS011;45859;51.378;6.736;2023-07-13T10:19:35;7.97;;;3.10;;
59998;SDS011;45859;51.378;6.736;2023-07-13T10:22:02;11.63;;;5.13;;
59998;SDS011;45859;51.378;6.736;2023-07-13T10:24:42;7.35;;;3.70;;
59998;SDS011;45859;51.378;6.736;2023-07-13T10:30:28;7.05;;;2.92;;
59998;SDS011;45859;51.378;6.736;2023-07-13T10:32:44;5.55;;;2.47;;
59998;SDS011;45859;51.378;6.736;2023-07-13T10:35:11;9.82;;;4.80;;
59998;SDS011;45859;51.378;6.736;2023-07-13T10:37:48;11.48;;;4.90;;
59998;SDS011;45859;51.378;6.736;2023-07-13T10:40:23;10.20;;;3.50;;
59998;SDS011;45859;51.378;6.736;2023-07-13T10:42:57;7.32;;;3.28;;
59998;SDS011;45859;51.378;6.736;2023-07-13T10:45:33;13.15;;;3.47;;
59998;SDS011;45859;51.378;6.736;2023-07-13T10:48:00;6.80;;;2.83;;
59998;SDS011;45859;51.378;6.736;2023-07-13T10:50:27;7.95;;;2.67;;
59998;SDS011;45859;51.378;6.736;2023-07-13T10:53:15;7.03;;;2.70;;
59998;SDS011;45859;51.378;6.736;2023-07-13T10:56:06;9.30;;;3.13;;
59998;SDS011;45859;51.378;6.736;2023-07-13T10:59:01;8.90;;;3.35;;
59998;SDS011;45859;51.378;6.736;2023-07-13T11:04:21;6.45;;;3.15;;
59998;SDS011;45859;51.378;6.736;2023-07-13T11:06:50;4.32;;;2.13;;
59998;SDS011;45859;51.378;6.736;2023-07-13T11:12:02;5.97;;;3.00;;
59998;SDS011;45859;51.378;6.736;2023-07-13T11:20:20;6.85;;;2.72;;
59998;SDS011;45859;51.378;6.736;2023-07-13T11:22:52;6.38;;;1.80;;
59998;SDS011;45859;51.378;6.736;2023-07-13T11:25:34;6.38;;;2.35;;
59998;SDS011;45859;51.378;6.736;2023-07-13T11:36:04;5.25;;;2.35;;
59998;SDS011;45859;51.378;6.736;2023-07-13T11:41:31;5.75;;;2.15;;
59998;SDS011;45859;51.378;6.736;2023-07-13T11:44:05;8.45;;;2.63;;
59998;SDS011;45859;51.378;6.736;2023-07-13T11:46:39;3.08;;;1.70;;
59998;SDS011;45859;51.378;6.736;2023-07-13T11:49:18;9.15;;;4.30;;
59998;SDS011;45859;51.378;6.736;2023-07-13T11:51:45;13.10;;;4.60;;
59998;SDS011;45859;51.378;6.736;2023-07-13T11:54:19;9.10;;;3.47;;
59998;SDS011;45859;51.378;6.736;2023-07-13T11:57:01;10.13;;;3.10;;
59998;SDS011;45859;51.378;6.736;2023-07-13T11:59:44;9.70;;;3.00;;
59998;SDS011;45859;51.378;6.736;2023-07-13T12:02:15;7.57;;;3.80;;
59998;SDS011;45859;51.378;6.736;2023-07-13T12:04:58;7.20;;;2.88;;
59998;SDS011;45859;51.378;6.736;2023-07-13T12:07:27;5.55;;;2.03;;
59998;SDS011;45859;51.378;6.736;2023-07-13T12:09:59;8.30;;;2.70;;
59998;SDS011;45859;51.378;6.736;2023-07-13T12:12:36;5.95;;;2.25;;
59998;SDS011;45859;51.378;6.736;2023-07-13T12:15:06;11.10;;;4.22;;
59998;SDS011;45859;51.378;6.736;2023-07-13T12:17:34;4.82;;;2.10;;
59998;SDS011;45859;51.378;6.736;2023-07-13T12:20:00;7.82;;;2.58;;
59998;SDS011;45859;51.378;6.736;2023-07-13T12:22:31;6.13;;;1.80;;
59998;SDS011;45859;51.378;6.736;2023-07-13T12:24:59;5.35;;;1.80;;
59998;SDS011;45859;51.378;6.736;2023-07-13T12:27:26;9.93;;;2.78;;
59998;SDS011;45859;51.378;6.736;2023-07-13T12:29:57;10.07;;;3.00;;
59998;SDS011;45859;51.378;6.736;2023-07-13T12:32:30;11.23;;;3.15;;
59998;SDS011;45859;51.378;6.736;2023-07-13T12:35:02;6.35;;;1.83;;
59998;SDS011;45859;51.378;6.736;2023-07-13T12:37:44;14.73;;;5.25;;
59998;SDS011;45859;51.378;6.736;2023-07-13T12:40:18;13.93;;;5.38;;
59998;SDS011;45859;51.378;6.736;2023-07-13T12:42:48;28.88;;;11.85;;
59998;SDS011;45859;51.378;6.736;2023-07-13T12:45:22;9.95;;;2.90;;
59998;SDS011;45859;51.378;6.736;2023-07-13T12:47:53;4.82;;;3.10;;
59998;SDS011;45859;51.378;6.736;2023-07-13T12:50:46;10.32;;;2.50;;
59998;SDS011;45859;51.378;6.736;2023-07-13T12:53:14;18.23;;;8.23;;
59998;SDS011;45859;51.378;6.736;2023-07-13T12:55:43;16.23;;;6.70;;
59998;SDS011;45859;51.378;6.736;2023-07-13T12:58:28;5.80;;;2.08;;
59998;SDS011;45859;51.378;6.736;2023-07-13T13:00:54;6.22;;;2.20;;
59998;SDS011;45859;51.378;6.736;2023-07-13T13:05:56;6.60;;;1.92;;
59998;SDS011;45859;51.378;6.736;2023-07-13T13:08:45;4.65;;;2.42;;
59998;SDS011;45859;51.378;6.736;2023-07-13T13:11:13;8.80;;;1.70;;
59998;SDS011;45859;51.378;6.736;2023-07-13T13:13:43;5.32;;;1.90;;
59998;SDS011;45859;51.378;6.736;2023-07-13T13:18:34;3.85;;;1.60;;
59998;SDS011;45859;51.378;6.736;2023-07-13T13:21:01;3.40;;;1.40;;
59998;SDS011;45859;51.378;6.736;2023-07-13T13:23:26;5.28;;;1.65;;
59998;SDS011;45859;51.378;6.736;2023-07-13T13:25:53;5.72;;;1.60;;
59998;SDS011;45859;51.378;6.736;2023-07-13T13:28:19;2.88;;;1.60;;
59998;SDS011;45859;51.378;6.736;2023-07-13T13:30:46;5.50;;;2.05;;
59998;SDS011;45859;51.378;6.736;2023-07-13T13:33:15;8.30;;;2.03;;
59998;SDS011;45859;51.378;6.736;2023-07-13T13:35:42;6.35;;;2.08;;
59998;SDS011;45859;51.378;6.736;2023-07-13T13:43:13;9.15;;;3.10;;
59998;SDS011;45859;51.378;6.736;2023-07-13T13:45:57;5.35;;;2.70;;
59998;SDS011;45859;51.378;6.736;2023-07-13T13:48:33;11.38;;;3.58;;
59998;SDS011;45859;51.378;6.736;2023-07-13T13:51:01;12.60;;;4.10;;
59998;SDS011;45859;51.378;6.736;2023-07-13T13:53:41;13.60;;;5.60;;
59998;SDS011;45859;51.378;6.736;2023-07-13T13:56:07;12.38;;;5.07;;
59998;SDS011;45859;51.378;6.736;2023-07-13T13:58:33;9.30;;;3.35;;
59998;SDS011;45859;51.378;6.736;2023-07-13T14:00:59;10.50;;;3.55;;
59998;SDS011;45859;51.378;6.736;2023-07-13T14:03:25;12.88;;;4.18;;
59998;SDS011;45859;51.378;6.736;2023-07-13T14:05:53;2.33;;;1.50;;
59998;SDS011;45859;51.378;6.736;2023-07-13T14:08:20;2.13;;;1.48;;
59998;SDS011;45859;51.378;6.736;2023-07-13T14:10:47;2.92;;;1.42;;
59998;SDS011;45859;51.378;6.736;2023-07-13T14:13:19;4.35;;;1.50;;
59998;SDS011;45859;51.378;6.736;2023-07-13T14:15:59;3.38;;;1.90;;
59998;SDS011;45859;51.378;6.736;2023-07-13T14:18:24;4.65;;;1.67;;
59998;SDS011;45859;51.378;6.736;2023-07-13T14:20:50;3.55;;;1.40;;
59998;SDS011;45859;51.378;6.736;2023-07-13T14:23:17;3.55;;;2.22;;
59998;SDS011;45859;51.378;6.736;2023-07-13T14:25:43;4.88;;;1.80;;
59998;SDS011;45859;51.378;6.736;2023-07-13T14:28:18;4.38;;;1.90;;
59998;SDS011;45859;51.378;6.736;2023-07-13T14:30:44;5.80;;;1.88;;
59998;SDS011;45859;51.378;6.736;2023-07-13T14:33:12;2.70;;;1.52;;
59998;SDS011;45859;51.378;6.736;2023-07-13T14:35:38;3.67;;;2.00;;
59998;SDS011;45859;51.378;6.736;2023-07-13T14:38:04;4.38;;;2.08;;
59998;SDS011;45859;51.378;6.736;2023-07-13T14:40:32;4.75;;;2.53;;
59998;SDS011;45859;51.378;6.736;2023-07-13T14:42:58;3.67;;;2.13;;
59998;SDS011;45859;51.378;6.736;2023-07-13T14:45:24;3.10;;;2.13;;
59998;SDS011;45859;51.378;6.736;2023-07-13T14:47:50;6.65;;;2.33;;
59998;SDS011;45859;51.378;6.736;2023-07-13T14:50:20;4.13;;;1.85;;
59998;SDS011;45859;51.378;6.736;2023-07-13T14:52:51;5.45;;;1.85;;
59998;SDS011;45859;51.378;6.736;2023-07-13T14:55:18;6.63;;;2.03;;
59998;SDS011;45859;51.378;6.736;2023-07-13T14:57:44;4.07;;;1.98;;
59998;SDS011;45859;51.378;6.736;2023-07-13T15:00:18;4.00;;;2.10;;
59998;SDS011;45859;51.378;6.736;2023-07-13T15:02:51;6.95;;;2.40;;
59998;SDS011;45859;51.378;6.736;2023-07-13T15:05:23;5.93;;;2.78;;
59998;SDS011;45859;51.378;6.736;2023-07-13T15:07:52;7.15;;;3.53;;
59998;SDS011;45859;51.378;6.736;2023-07-13T15:10:19;3.95;;;1.98;;
59998;SDS011;45859;51.378;6.736;2023-07-13T15:12:47;2.80;;;1.70;;
59998;SDS011;45859;51.378;6.736;2023-07-13T15:15:13;2.80;;;1.75;;
59998;SDS011;45859;51.378;6.736;2023-07-13T15:17:43;3.78;;;1.45;;
59998;SDS011;45859;51.378;6.736;2023-07-13T15:20:31;4.13;;;1.42;;
59998;SDS011;45859;51.378;6.736;2023-07-13T15:22:59;4.28;;;1.60;;
59998;SDS011;45859;51.378;6.736;2023-07-13T15:25:25;3.20;;;1.55;;
59998;SDS011;45859;51.378;6.736;2023-07-13T15:27:53;2.45;;;1.75;;
59998;SDS011;45859;51.378;6.736;2023-07-13T15:30:21;1.77;;;1.48;;
59998;SDS011;45859;51.378;6.736;2023-07-13T15:32:48;2.45;;;1.17;;
59998;SDS011;45859;51.378;6.736;2023-07-13T15:35:15;4.93;;;2.10;;
59998;SDS011;45859;51.378;6.736;2023-07-13T15:37:42;3.20;;;1.38;;
59998;SDS011;45859;51.378;6.736;2023-07-13T15:40:09;1.10;;;1.00;;
59998;SDS011;45859;51.378;6.736;2023-07-13T15:42:36;2.42;;;1.20;;
59998;SDS011;45859;51.378;6.736;2023-07-13T15:45:04;1.80;;;1.10;;
59998;SDS011;45859;51.378;6.736;2023-07-13T15:47:31;3.83;;;1.70;;
59998;SDS011;45859;51.378;6.736;2023-07-13T15:49:57;2.40;;;1.48;;
59998;SDS011;45859;51.378;6.736;2023-07-13T15:52:23;3.22;;;1.77;;